sensor_id;sensor_type;location;lat;lon;timestamp;pressure;altitude;pressure_sealevel;temperature;humidity
4149;BME280;2088;51.032;7.082;2022-11-21T00:00:21;48518.59;;;-142.28;100.00
4149;BME280;2088;51.032;7.082;2022-11-21T00:02:48;48543.75;;;-142.28;100.00
4149;BME280;2088;51.032;7.082;2022-11-21T00:05:14;48505.03;;;-142.28;100.00
4149;BME280;2088;51.032;7.082;2022-11-21T00:07:40;48536.00;;;-142.28;100.00
4149;BME280;2088;51.032;7.082;2022-11-21T00:10:08;48524.41;;;-142.28;100.00
4149;BME280;2088;51.032;7.082;2022-11-21T00:12:36;48512.78;;;-142.28;100.00
4149;BME280;2088;51.032;7.082;2022-11-21T00:15:03;48518.59;;;-142.28;100.00
4149;BME280;2088;51.032;7.082;2022-11-21T00:17:29;48539.88;;;-142.28;100.00
4149;BME280;2088;51.032;7.082;2022-11-21T00:19:56;48516.66;;;-142.28;100.00
4149;BME280;2088;51.032;7.082;2022-11-21T00:22:22;48530.22;;;-142.28;100.00
4149;BME280;2088;51.032;7.082;2022-11-21T00:24:49;48516.66;;;-142.28;100.00
4149;BME280;2088;51.032;7.082;2022-11-21T00:27:15;48508.91;;;-142.28;100.00
4149;BME280;2088;51.032;7.082;2022-11-21T00:29:43;48512.78;;;-142.28;100.00
4149;BME280;2088;51.032;7.082;2022-11-21T00:32:10;48530.22;;;-142.28;100.00
4149;BME280;2088;51.032;7.082;2022-11-21T00:34:36;48476.00;;;-142.28;100.00
4149;BME280;2088;51.032;7.082;2022-11-21T00:37:02;48526.34;;;-142.28;100.00
4149;BME280;2088;51.032;7.082;2022-11-21T00:39:29;48514.72;;;-142.28;100.00
4149;BME280;2088;51.032;7.082;2022-11-21T00:41:55;48522.47;;;-142.28;100.00
4149;BME280;2088;51.032;7.082;2022-11-21T00:44:22;48514.72;;;-142.28;100.00
4149;BME280;2088;51.032;7.082;2022-11-21T00:46:50;48528.28;;;-142.28;100.00
4149;BME280;2088;51.032;7.082;2022-11-21T00:49:16;48510.84;;;-142.28;100.00
4149;BME280;2088;51.032;7.082;2022-11-21T00:51:43;48526.34;;;-142.28;100.00
4149;BME280;2088;51.032;7.082;2022-11-21T00:54:09;48532.13;;;-142.28;100.00
4149;BME280;2088;51.032;7.082;2022-11-21T00:56:36;48530.22;;;-142.28;100.00
4149;BME280;2088;51.032;7.082;2022-11-21T00:59:02;48536.00;;;-142.28;100.00
4149;BME280;2088;51.032;7.082;2022-11-21T01:01:28;48528.28;;;-142.28;100.00
4149;BME280;2088;51.032;7.082;2022-11-21T01:03:57;48557.31;;;-142.28;100.00
4149;BME280;2088;51.032;7.082;2022-11-21T01:06:24;48547.63;;;-142.28;100.00
4149;BME280;2088;51.032;7.082;2022-11-21T01:08:51;48545.69;;;-142.28;100.00
4149;BME280;2088;51.032;7.082;2022-11-21T01:11:19;48536.00;;;-142.28;100.00
4149;BME280;2088;51.032;7.082;2022-11-21T01:13:46;48582.47;;;-142.28;100.00
4149;BME280;2088;51.032;7.082;2022-11-21T01:16:15;48547.63;;;-142.28;100.00
4149;BME280;2088;51.032;7.082;2022-11-21T01:18:42;48574.72;;;-142.28;100.00
4149;BME280;2088;51.032;7.082;2022-11-21T01:21:14;48568.91;;;-142.28;100.00
4149;BME280;2088;51.032;7.082;2022-11-21T01:23:41;48534.06;;;-142.28;100.00
4149;BME280;2088;51.032;7.082;2022-11-21T01:26:10;48559.25;;;-142.28;100.00
4149;BME280;2088;51.032;7.082;2022-11-21T01:28:37;48570.84;;;-142.28;100.00
4149;BME280;2088;51.032;7.082;2022-11-21T01:31:04;48539.88;;;-142.28;100.00
4149;BME280;2088;51.032;7.082;2022-11-21T01:33:30;48578.59;;;-142.28;100.00
4149;BME280;2088;51.032;7.082;2022-11-21T01:36:05;48553.44;;;-142.28;100.00
4149;BME280;2088;51.032;7.082;2022-11-21T01:38:33;48555.38;;;-142.28;100.00
4149;BME280;2088;51.032;7.082;2022-11-21T01:40:59;48563.09;;;-142.28;100.00
4149;BME280;2088;51.032;7.082;2022-11-21T01:43:26;48563.09;;;-142.28;100.00
4149;BME280;2088;51.032;7.082;2022-11-21T01:45:54;48537.94;;;-142.28;100.00
4149;BME280;2088;51.032;7.082;2022-11-21T01:48:24;48545.69;;;-142.28;100.00
4149;BME280;2088;51.032;7.082;2022-11-21T01:50:53;48551.50;;;-142.28;100.00
4149;BME280;2088;51.032;7.082;2022-11-21T01:53:22;48547.63;;;-142.28;100.00
4149;BME280;2088;51.032;7.082;2022-11-21T01:55:50;48528.28;;;-142.28;100.00
4149;BME280;2088;51.032;7.082;2022-11-21T01:58:17;48545.69;;;-142.28;100.00
4149;BME280;2088;51.032;7.082;2022-11-21T02:00:45;48555.38;;;-142.28;100.00
4149;BME280;2088;51.032;7.082;2022-11-21T02:03:17;48530.22;;;-142.28;100.00
4149;BME280;2088;51.032;7.082;2022-11-21T02:05:45;48508.91;;;-142.28;100.00
4149;BME280;2088;51.032;7.082;2022-11-21T02:08:14;48549.56;;;-142.28;100.00
4149;BME280;2088;51.032;7.082;2022-11-21T02:10:49;48551.50;;;-142.28;100.00
4149;BME280;2088;51.032;7.082;2022-11-21T02:13:20;48549.56;;;-142.28;100.00
4149;BME280;2088;51.032;7.082;2022-11-21T02:15:47;48532.13;;;-142.28;100.00
4149;BME280;2088;51.032;7.082;2022-11-21T02:18:14;48565.03;;;-142.28;100.00
4149;BME280;2088;51.032;7.082;2022-11-21T02:20:45;48516.66;;;-142.28;100.00
4149;BME280;2088;51.032;7.082;2022-11-21T02:23:24;48553.44;;;-142.28;100.00
4149;BME280;2088;51.032;7.082;2022-11-21T02:25:53;48547.63;;;-142.28;100.00
4149;BME280;2088;51.032;7.082;2022-11-21T02:28:21;48536.00;;;-142.28;100.00
4149;BME280;2088;51.032;7.082;2022-11-21T02:30:49;48532.13;;;-142.28;100.00
4149;BME280;2088;51.032;7.082;2022-11-21T02:33:16;48539.88;;;-142.28;100.00
4149;BME280;2088;51.032;7.082;2022-11-21T02:35:43;48551.50;;;-142.28;100.00
4149;BME280;2088;51.032;7.082;2022-11-21T02:38:16;48539.88;;;-142.28;100.00
4149;BME280;2088;51.032;7.082;2022-11-21T02:40:51;48559.25;;;-142.28;100.00
4149;BME280;2088;51.032;7.082;2022-11-21T02:43:22;48568.91;;;-142.28;100.00
4149;BME280;2088;51.032;7.082;2022-11-21T02:45:49;48536.00;;;-142.28;100.00
4149;BME280;2088;51.032;7.082;2022-11-21T02:48:16;48559.25;;;-142.28;100.00
4149;BME280;2088;51.032;7.082;2022-11-21T02:50:43;48536.00;;;-142.28;100.00
4149;BME280;2088;51.032;7.082;2022-11-21T02:53:13;48568.91;;;-142.28;100.00
4149;BME280;2088;51.032;7.082;2022-11-21T02:55:40;48545.69;;;-142.28;100.00
4149;BME280;2088;51.032;7.082;2022-11-21T02:58:07;48563.09;;;-142.28;100.00
4149;BME280;2088;51.032;7.082;2022-11-21T03:00:36;48557.31;;;-142.28;100.00
4149;BME280;2088;51.032;7.082;2022-11-21T03:03:03;48590.19;;;-142.28;100.00
4149;BME280;2088;51.032;7.082;2022-11-21T03:05:30;48547.63;;;-142.28;100.00
4149;BME280;2088;51.032;7.082;2022-11-21T03:07:56;48582.47;;;-142.28;100.00
4149;BME280;2088;51.032;7.082;2022-11-21T03:10:23;48582.47;;;-142.28;100.00
4149;BME280;2088;51.032;7.082;2022-11-21T03:12:49;48576.66;;;-142.28;100.00
4149;BME280;2088;51.032;7.082;2022-11-21T03:15:25;48605.69;;;-142.28;100.00
4149;BME280;2088;51.032;7.082;2022-11-21T03:17:53;48607.63;;;-142.28;100.00
4149;BME280;2088;51.032;7.082;2022-11-21T03:20:20;48584.41;;;-142.28;100.00
4149;BME280;2088;51.032;7.082;2022-11-21T03:22:46;48563.09;;;-142.28;100.00
4149;BME280;2088;51.032;7.082;2022-11-21T03:25:13;48594.06;;;-142.28;100.00
4149;BME280;2088;51.032;7.082;2022-11-21T03:27:40;48586.34;;;-142.28;100.00
4149;BME280;2088;51.032;7.082;2022-11-21T03:30:07;48574.72;;;-142.28;100.00
4149;BME280;2088;51.032;7.082;2022-11-21T03:32:34;48553.44;;;-142.28;100.00
4149;BME280;2088;51.032;7.082;2022-11-21T03:35:03;48570.84;;;-142.28;100.00
4149;BME280;2088;51.032;7.082;2022-11-21T03:37:29;48566.97;;;-142.28;100.00
4149;BME280;2088;51.032;7.082;2022-11-21T03:39:56;48584.41;;;-142.28;100.00
4149;BME280;2088;51.032;7.082;2022-11-21T03:42:22;48563.09;;;-142.28;100.00
4149;BME280;2088;51.032;7.082;2022-11-21T03:44:49;48586.34;;;-142.28;100.00
4149;BME280;2088;51.032;7.082;2022-11-21T03:47:15;48563.09;;;-142.28;100.00
4149;BME280;2088;51.032;7.082;2022-11-21T03:49:42;48547.63;;;-142.28;100.00
4149;BME280;2088;51.032;7.082;2022-11-21T03:52:10;48566.97;;;-142.28;100.00
4149;BME280;2088;51.032;7.082;2022-11-21T03:54:36;48578.59;;;-142.28;100.00
4149;BME280;2088;51.032;7.082;2022-11-21T03:57:02;48596.00;;;-142.28;100.00
4149;BME280;2088;51.032;7.082;2022-11-21T03:59:29;48588.28;;;-142.28;100.00
4149;BME280;2088;51.032;7.082;2022-11-21T04:01:55;48597.94;;;-142.28;100.00
4149;BME280;2088;51.032;7.082;2022-11-21T04:04:22;48588.28;;;-142.28;100.00
4149;BME280;2088;51.032;7.082;2022-11-21T04:06:48;48596.00;;;-142.28;100.00
4149;BME280;2088;51.032;7.082;2022-11-21T04:09:16;48574.72;;;-142.28;100.00
4149;BME280;2088;51.032;7.082;2022-11-21T04:11:43;48603.75;;;-142.28;100.00
4149;BME280;2088;51.032;7.082;2022-11-21T04:14:09;48572.78;;;-142.28;100.00
4149;BME280;2088;51.032;7.082;2022-11-21T04:16:36;48557.31;;;-142.28;100.00
4149;BME280;2088;51.032;7.082;2022-11-21T04:19:02;48586.34;;;-142.28;100.00
4149;BME280;2088;51.032;7.082;2022-11-21T04:21:29;48578.59;;;-142.28;100.00
4149;BME280;2088;51.032;7.082;2022-11-21T04:23:55;48566.97;;;-142.28;100.00
4149;BME280;2088;51.032;7.082;2022-11-21T04:26:23;48582.47;;;-142.28;100.00
4149;BME280;2088;51.032;7.082;2022-11-21T04:28:49;48563.09;;;-142.28;100.00
4149;BME280;2088;51.032;7.082;2022-11-21T04:31:16;48572.78;;;-142.28;100.00
4149;BME280;2088;51.032;7.082;2022-11-21T04:33:42;48557.31;;;-142.28;100.00
4149;BME280;2088;51.032;7.082;2022-11-21T04:36:09;48574.72;;;-142.28;100.00
4149;BME280;2088;51.032;7.082;2022-11-21T04:38:35;48566.97;;;-142.28;100.00
4149;BME280;2088;51.032;7.082;2022-11-21T04:41:02;48543.75;;;-142.28;100.00
4149;BME280;2088;51.032;7.082;2022-11-21T04:43:30;48576.66;;;-142.28;100.00
4149;BME280;2088;51.032;7.082;2022-11-21T04:45:56;48572.78;;;-142.28;100.00
4149;BME280;2088;51.032;7.082;2022-11-21T04:48:23;48568.91;;;-142.28;100.00
4149;BME280;2088;51.032;7.082;2022-11-21T04:50:49;48576.66;;;-142.28;100.00
4149;BME280;2088;51.032;7.082;2022-11-21T04:53:16;48590.19;;;-142.28;100.00
4149;BME280;2088;51.032;7.082;2022-11-21T04:55:42;48568.91;;;-142.28;100.00
4149;BME280;2088;51.032;7.082;2022-11-21T04:58:09;48599.88;;;-142.28;100.00
4149;BME280;2088;51.032;7.082;2022-11-21T05:00:37;48578.59;;;-142.28;100.00
4149;BME280;2088;51.032;7.082;2022-11-21T05:03:04;48572.78;;;-142.28;100.00
4149;BME280;2088;51.032;7.082;2022-11-21T05:05:32;48561.16;;;-142.28;100.00
4149;BME280;2088;51.032;7.082;2022-11-21T05:07:58;48590.19;;;-142.28;100.00
4149;BME280;2088;51.032;7.082;2022-11-21T05:10:25;48590.19;;;-142.28;100.00
4149;BME280;2088;51.032;7.082;2022-11-21T05:12:58;48580.53;;;-142.28;100.00
4149;BME280;2088;51.032;7.082;2022-11-21T05:15:44;48551.50;;;-142.28;100.00
4149;BME280;2088;51.032;7.082;2022-11-21T05:18:15;48586.34;;;-142.28;100.00
4149;BME280;2088;51.032;7.082;2022-11-21T05:20:42;48582.47;;;-142.28;100.00
4149;BME280;2088;51.032;7.082;2022-11-21T05:23:08;48582.47;;;-142.28;100.00
4149;BME280;2088;51.032;7.082;2022-11-21T05:25:35;48586.34;;;-142.28;100.00
4149;BME280;2088;51.032;7.082;2022-11-21T05:28:01;48594.06;;;-142.28;100.00
4149;BME280;2088;51.032;7.082;2022-11-21T05:30:28;48592.13;;;-142.28;100.00
4149;BME280;2088;51.032;7.082;2022-11-21T05:32:56;48603.75;;;-142.28;100.00
4149;BME280;2088;51.032;7.082;2022-11-21T05:35:22;48625.03;;;-142.28;100.00
4149;BME280;2088;51.032;7.082;2022-11-21T05:37:54;48613.44;;;-142.28;100.00
4149;BME280;2088;51.032;7.082;2022-11-21T05:40:21;48574.72;;;-142.28;100.00
4149;BME280;2088;51.032;7.082;2022-11-21T05:42:47;48578.59;;;-142.28;100.00
4149;BME280;2088;51.032;7.082;2022-11-21T05:45:30;48590.19;;;-142.28;100.00
4149;BME280;2088;51.032;7.082;2022-11-21T05:47:58;48597.94;;;-142.28;100.00
4149;BME280;2088;51.032;7.082;2022-11-21T05:50:25;48524.41;;;-142.28;100.00
4149;BME280;2088;51.032;7.082;2022-11-21T05:52:52;48584.41;;;-142.28;100.00
4149;BME280;2088;51.032;7.082;2022-11-21T05:55:18;48574.72;;;-142.28;100.00
4149;BME280;2088;51.032;7.082;2022-11-21T05:57:45;48596.00;;;-142.28;100.00
4149;BME280;2088;51.032;7.082;2022-11-21T06:00:12;48574.72;;;-142.28;100.00
4149;BME280;2088;51.032;7.082;2022-11-21T06:02:39;48561.16;;;-142.28;100.00
4149;BME280;2088;51.032;7.082;2022-11-21T06:05:24;48559.25;;;-142.28;100.00
4149;BME280;2088;51.032;7.082;2022-11-21T06:07:51;48586.34;;;-142.28;100.00
4149;BME280;2088;51.032;7.082;2022-11-21T06:10:17;48594.06;;;-142.28;100.00
4149;BME280;2088;51.032;7.082;2022-11-21T06:12:44;48582.47;;;-142.28;100.00
4149;BME280;2088;51.032;7.082;2022-11-21T06:15:10;48570.84;;;-142.28;100.00
4149;BME280;2088;51.032;7.082;2022-11-21T06:17:37;48582.47;;;-142.28;100.00
4149;BME280;2088;51.032;7.082;2022-11-21T06:20:04;48553.44;;;-142.28;100.00
4149;BME280;2088;51.032;7.082;2022-11-21T06:22:32;48582.47;;;-142.28;100.00
4149;BME280;2088;51.032;7.082;2022-11-21T06:24:58;48561.16;;;-142.28;100.00
4149;BME280;2088;51.032;7.082;2022-11-21T06:27:24;48561.16;;;-142.28;100.00
4149;BME280;2088;51.032;7.082;2022-11-21T06:29:51;48563.09;;;-142.28;100.00
4149;BME280;2088;51.032;7.082;2022-11-21T06:32:17;48570.84;;;-142.28;100.00
4149;BME280;2088;51.032;7.082;2022-11-21T06:34:44;48551.50;;;-142.28;100.00
4149;BME280;2088;51.032;7.082;2022-11-21T06:37:10;48576.66;;;-142.28;100.00
4149;BME280;2088;51.032;7.082;2022-11-21T06:39:38;48578.59;;;-142.28;100.00
4149;BME280;2088;51.032;7.082;2022-11-21T06:42:04;48563.09;;;-142.28;100.00
4149;BME280;2088;51.032;7.082;2022-11-21T06:44:31;48586.34;;;-142.28;100.00
4149;BME280;2088;51.032;7.082;2022-11-21T06:46:57;48601.81;;;-142.28;100.00
4149;BME280;2088;51.032;7.082;2022-11-21T06:49:24;48605.69;;;-142.28;100.00
4149;BME280;2088;51.032;7.082;2022-11-21T06:51:50;48588.28;;;-142.28;100.00
4149;BME280;2088;51.032;7.082;2022-11-21T06:54:17;48615.38;;;-142.28;100.00
4149;BME280;2088;51.032;7.082;2022-11-21T06:56:45;48584.41;;;-142.28;100.00
4149;BME280;2088;51.032;7.082;2022-11-21T06:59:11;48586.34;;;-142.28;100.00
4149;BME280;2088;51.032;7.082;2022-11-21T07:01:37;48626.97;;;-142.28;100.00
4149;BME280;2088;51.032;7.082;2022-11-21T07:04:04;48597.94;;;-142.28;100.00
4149;BME280;2088;51.032;7.082;2022-11-21T07:06:30;48586.34;;;-142.28;100.00
4149;BME280;2088;51.032;7.082;2022-11-21T07:08:57;48578.59;;;-142.28;100.00
4149;BME280;2088;51.032;7.082;2022-11-21T07:11:23;48594.06;;;-142.28;100.00
4149;BME280;2088;51.032;7.082;2022-11-21T07:13:51;48570.84;;;-142.28;100.00
4149;BME280;2088;51.032;7.082;2022-11-21T07:16:17;48621.16;;;-142.28;100.00
4149;BME280;2088;51.032;7.082;2022-11-21T07:18:44;48578.59;;;-142.28;100.00
4149;BME280;2088;51.032;7.082;2022-11-21T07:21:10;48566.97;;;-142.28;100.00
4149;BME280;2088;51.032;7.082;2022-11-21T07:23:37;48601.81;;;-142.28;100.00
4149;BME280;2088;51.032;7.082;2022-11-21T07:26:06;48601.81;;;-142.28;100.00
4149;BME280;2088;51.032;7.082;2022-11-21T07:28:33;48603.75;;;-142.28;100.00
4149;BME280;2088;51.032;7.082;2022-11-21T07:31:01;48588.28;;;-142.28;100.00
4149;BME280;2088;51.032;7.082;2022-11-21T07:33:28;48586.34;;;-142.28;100.00
4149;BME280;2088;51.032;7.082;2022-11-21T07:35:54;48594.06;;;-142.28;100.00
4149;BME280;2088;51.032;7.082;2022-11-21T07:38:21;48570.84;;;-142.28;100.00
4149;BME280;2088;51.032;7.082;2022-11-21T07:40:48;48596.00;;;-142.28;100.00
4149;BME280;2088;51.032;7.082;2022-11-21T07:43:14;48568.91;;;-142.28;100.00
4149;BME280;2088;51.032;7.082;2022-11-21T07:45:40;48574.72;;;-142.28;100.00
4149;BME280;2088;51.032;7.082;2022-11-21T07:48:08;48574.72;;;-142.28;100.00
4149;BME280;2088;51.032;7.082;2022-11-21T07:50:36;48578.59;;;-142.28;100.00
4149;BME280;2088;51.032;7.082;2022-11-21T07:53:04;48566.97;;;-142.28;100.00
4149;BME280;2088;51.032;7.082;2022-11-21T07:55:31;48594.06;;;-142.28;100.00
4149;BME280;2088;51.032;7.082;2022-11-21T07:57:58;48601.81;;;-142.28;100.00
4149;BME280;2088;51.032;7.082;2022-11-21T08:00:26;48555.38;;;-142.28;100.00
4149;BME280;2088;51.032;7.082;2022-11-21T08:02:52;48568.91;;;-142.28;100.00
4149;BME280;2088;51.032;7.082;2022-11-21T08:05:21;48553.44;;;-142.28;100.00
4149;BME280;2088;51.032;7.082;2022-11-21T08:07:48;48518.59;;;-142.28;100.00
4149;BME280;2088;51.032;7.082;2022-11-21T08:10:15;48547.63;;;-142.28;100.00
4149;BME280;2088;51.032;7.082;2022-11-21T08:12:42;48547.63;;;-142.28;100.00
4149;BME280;2088;51.032;7.082;2022-11-21T08:15:09;48555.38;;;-142.28;100.00
4149;BME280;2088;51.032;7.082;2022-11-21T08:17:36;48526.34;;;-142.28;100.00
4149;BME280;2088;51.032;7.082;2022-11-21T08:20:03;48541.81;;;-142.28;100.00
4149;BME280;2088;51.032;7.082;2022-11-21T08:22:31;48536.00;;;-142.28;100.00
4149;BME280;2088;51.032;7.082;2022-11-21T08:24:57;48532.13;;;-142.28;100.00
4149;BME280;2088;51.032;7.082;2022-11-21T08:27:24;48508.91;;;-142.28;100.00
4149;BME280;2088;51.032;7.082;2022-11-21T08:29:50;48503.09;;;-142.28;100.00
4149;BME280;2088;51.032;7.082;2022-11-21T08:32:16;48508.91;;;-142.28;100.00
4149;BME280;2088;51.032;7.082;2022-11-21T08:34:44;48520.53;;;-142.28;100.00
4149;BME280;2088;51.032;7.082;2022-11-21T08:37:10;48524.41;;;-142.28;100.00
4149;BME280;2088;51.032;7.082;2022-11-21T08:39:38;48506.97;;;-142.28;100.00
4149;BME280;2088;51.032;7.082;2022-11-21T08:42:04;48512.78;;;-142.28;100.00
4149;BME280;2088;51.032;7.082;2022-11-21T08:44:32;48524.41;;;-142.28;100.00
4149;BME280;2088;51.032;7.082;2022-11-21T08:46:59;48487.63;;;-142.28;100.00
4149;BME280;2088;51.032;7.082;2022-11-21T08:49:26;48503.09;;;-142.28;100.00
4149;BME280;2088;51.032;7.082;2022-11-21T08:51:53;48485.69;;;-142.28;100.00
4149;BME280;2088;51.032;7.082;2022-11-21T08:54:21;48512.78;;;-142.28;100.00
4149;BME280;2088;51.032;7.082;2022-11-21T08:56:49;48512.78;;;-142.28;100.00
4149;BME280;2088;51.032;7.082;2022-11-21T08:59:16;48553.44;;;-142.28;100.00
4149;BME280;2088;51.032;7.082;2022-11-21T09:01:43;48493.44;;;-142.28;100.00
4149;BME280;2088;51.032;7.082;2022-11-21T09:04:10;48505.03;;;-142.28;100.00
4149;BME280;2088;51.032;7.082;2022-11-21T09:06:37;48506.97;;;-142.28;100.00
4149;BME280;2088;51.032;7.082;2022-11-21T09:09:05;48508.91;;;-142.28;100.00
4149;BME280;2088;51.032;7.082;2022-11-21T09:11:31;48477.94;;;-142.28;100.00
4149;BME280;2088;51.032;7.082;2022-11-21T09:13:59;48497.31;;;-142.28;100.00
4149;BME280;2088;51.032;7.082;2022-11-21T09:16:43;48497.31;;;-142.28;100.00
4149;BME280;2088;51.032;7.082;2022-11-21T09:19:27;48489.56;;;-142.28;100.00
4149;BME280;2088;51.032;7.082;2022-11-21T09:21:54;48501.16;;;-142.28;100.00
4149;BME280;2088;51.032;7.082;2022-11-21T09:24:21;48483.75;;;-142.28;100.00
4149;BME280;2088;51.032;7.082;2022-11-21T09:26:47;48516.66;;;-142.28;100.00
4149;BME280;2088;51.032;7.082;2022-11-21T09:29:15;48508.91;;;-142.28;100.00
4149;BME280;2088;51.032;7.082;2022-11-21T09:31:41;48524.41;;;-142.28;100.00
4149;BME280;2088;51.032;7.082;2022-11-21T09:34:09;48510.84;;;-142.28;100.00
4149;BME280;2088;51.032;7.082;2022-11-21T09:36:35;48524.41;;;-142.28;100.00
4149;BME280;2088;51.032;7.082;2022-11-21T09:39:02;48489.56;;;-142.28;100.00
4149;BME280;2088;51.032;7.082;2022-11-21T09:41:31;48491.50;;;-142.28;100.00
4149;BME280;2088;51.032;7.082;2022-11-21T09:44:29;48522.47;;;-142.28;100.00
4149;BME280;2088;51.032;7.082;2022-11-21T09:47:04;48506.97;;;-142.28;100.00
4149;BME280;2088;51.032;7.082;2022-11-21T09:49:41;48497.31;;;-142.28;100.00
4149;BME280;2088;51.032;7.082;2022-11-21T09:52:10;48481.81;;;-142.28;100.00
4149;BME280;2088;51.032;7.082;2022-11-21T09:54:41;48452.78;;;-142.28;99.45
4149;BME280;2088;51.032;7.082;2022-11-21T09:57:14;48491.50;;;-142.28;99.45
4149;BME280;2088;51.032;7.082;2022-11-21T09:59:43;48474.06;;;-142.28;98.40
4149;BME280;2088;51.032;7.082;2022-11-21T10:02:13;48437.31;;;-142.28;97.95
4149;BME280;2088;51.032;7.082;2022-11-21T10:04:40;48462.47;;;-142.28;97.14
4149;BME280;2088;51.032;7.082;2022-11-21T10:07:11;48462.47;;;-142.28;96.88
4149;BME280;2088;51.032;7.082;2022-11-21T10:10:00;48425.69;;;-142.28;95.43
4149;BME280;2088;51.032;7.082;2022-11-21T10:12:32;48421.81;;;-142.28;95.56
4149;BME280;2088;51.032;7.082;2022-11-21T10:15:13;48414.09;;;-142.28;95.00
4149;BME280;2088;51.032;7.082;2022-11-21T10:17:49;48419.88;;;-142.28;93.98
4149;BME280;2088;51.032;7.082;2022-11-21T10:20:30;48400.53;;;-142.28;92.96
4149;BME280;2088;51.032;7.082;2022-11-21T10:23:15;48373.44;;;-142.28;93.00
4149;BME280;2088;51.032;7.082;2022-11-21T10:25:51;48385.06;;;-142.28;91.90
4149;BME280;2088;51.032;7.082;2022-11-21T10:28:23;48406.34;;;-142.28;92.52
4149;BME280;2088;51.032;7.082;2022-11-21T10:30:56;48381.19;;;-142.28;93.10
4149;BME280;2088;51.032;7.082;2022-11-21T10:33:29;48396.66;;;-142.28;93.67
4149;BME280;2088;51.032;7.082;2022-11-21T10:35:59;48357.97;;;-142.28;94.38
4149;BME280;2088;51.032;7.082;2022-11-21T10:38:28;48414.09;;;-142.28;94.98
4149;BME280;2088;51.032;7.082;2022-11-21T10:41:00;48402.47;;;-142.28;95.09
4149;BME280;2088;51.032;7.082;2022-11-21T10:43:33;48408.28;;;-142.28;94.88
4149;BME280;2088;51.032;7.082;2022-11-21T10:46:20;48412.16;;;-142.28;95.06
4149;BME280;2088;51.032;7.082;2022-11-21T10:48:54;48390.84;;;-142.28;95.70
4149;BME280;2088;51.032;7.082;2022-11-21T10:51:34;48423.75;;;-142.28;96.29
4149;BME280;2088;51.032;7.082;2022-11-21T10:54:04;48390.84;;;-142.28;95.51
4149;BME280;2088;51.032;7.082;2022-11-21T10:56:49;48421.81;;;-142.28;96.73
4149;BME280;2088;51.032;7.082;2022-11-21T10:59:22;48425.69;;;-142.28;95.71
4149;BME280;2088;51.032;7.082;2022-11-21T11:01:56;48390.84;;;-142.28;95.28
4149;BME280;2088;51.032;7.082;2022-11-21T11:04:25;48396.66;;;-142.28;94.49
4149;BME280;2088;51.032;7.082;2022-11-21T11:06:52;48400.53;;;-142.28;94.87
4149;BME280;2088;51.032;7.082;2022-11-21T11:09:24;48423.75;;;-142.28;95.12
4149;BME280;2088;51.032;7.082;2022-11-21T11:11:52;48400.53;;;-142.28;95.23
4149;BME280;2088;51.032;7.082;2022-11-21T11:14:30;48390.84;;;-142.28;94.96
4149;BME280;2088;51.032;7.082;2022-11-21T11:16:58;48379.25;;;-142.28;93.76
4149;BME280;2088;51.032;7.082;2022-11-21T11:19:28;48417.94;;;-142.28;93.55
4149;BME280;2088;51.032;7.082;2022-11-21T11:21:54;48417.94;;;-142.28;93.62
4149;BME280;2088;51.032;7.082;2022-11-21T11:24:23;48396.66;;;-142.28;90.19
4149;BME280;2088;51.032;7.082;2022-11-21T11:26:56;48354.09;;;-142.28;88.61
4149;BME280;2088;51.032;7.082;2022-11-21T11:29:24;48332.78;;;-142.28;86.98
4149;BME280;2088;51.032;7.082;2022-11-21T11:31:54;48309.56;;;-142.28;84.50
4149;BME280;2088;51.032;7.082;2022-11-21T11:34:24;48334.72;;;-142.28;85.08
4149;BME280;2088;51.032;7.082;2022-11-21T11:37:00;48292.16;;;-142.28;84.46
4149;BME280;2088;51.032;7.082;2022-11-21T11:39:38;48290.22;;;-142.28;83.98
4149;BME280;2088;51.032;7.082;2022-11-21T11:45:30;48296.03;;;-142.28;82.90
4149;BME280;2088;51.032;7.082;2022-11-21T11:48:18;48305.69;;;-142.28;83.35
4149;BME280;2088;51.032;7.082;2022-11-21T11:50:48;48280.53;;;-142.28;83.94
4149;BME280;2088;51.032;7.082;2022-11-21T11:53:17;48294.09;;;-142.28;82.69
4149;BME280;2088;51.032;7.082;2022-11-21T11:55:48;48272.81;;;-142.28;83.50
4149;BME280;2088;51.032;7.082;2022-11-21T11:58:22;48315.38;;;-142.28;83.74
4149;BME280;2088;51.032;7.082;2022-11-21T12:00:58;48296.03;;;-142.28;83.48
4149;BME280;2088;51.032;7.082;2022-11-21T12:03:33;48284.41;;;-142.28;82.84
4149;BME280;2088;51.032;7.082;2022-11-21T12:06:05;48315.38;;;-142.28;82.70
4149;BME280;2088;51.032;7.082;2022-11-21T12:08:40;48270.88;;;-142.28;82.60
4149;BME280;2088;51.032;7.082;2022-11-21T12:11:31;48280.53;;;-142.28;81.14
4149;BME280;2088;51.032;7.082;2022-11-21T12:14:27;48276.66;;;-142.28;80.01
4149;BME280;2088;51.032;7.082;2022-11-21T12:17:14;48267.00;;;-142.28;80.76
4149;BME280;2088;51.032;7.082;2022-11-21T12:19:43;48268.94;;;-142.28;81.15
4149;BME280;2088;51.032;7.082;2022-11-21T12:22:11;48268.94;;;-142.28;81.97
4149;BME280;2088;51.032;7.082;2022-11-21T12:24:37;48261.19;;;-142.28;82.78
4149;BME280;2088;51.032;7.082;2022-11-21T12:27:15;48263.13;;;-142.28;78.62
4149;BME280;2088;51.032;7.082;2022-11-21T12:29:57;48222.47;;;-142.28;71.98
4149;BME280;2088;51.032;7.082;2022-11-21T12:32:40;48183.78;;;-142.28;70.36
4149;BME280;2088;51.032;7.082;2022-11-21T12:38:24;48197.31;;;-142.28;69.63
4149;BME280;2088;51.032;7.082;2022-11-21T12:41:03;48207.00;;;-142.28;68.77
4149;BME280;2088;51.032;7.082;2022-11-21T12:44:01;48228.28;;;-142.28;71.39
4149;BME280;2088;51.032;7.082;2022-11-21T12:46:40;48218.63;;;-142.28;72.02
4149;BME280;2088;51.032;7.082;2022-11-21T12:49:16;48226.34;;;-142.28;72.88
4149;BME280;2088;51.032;7.082;2022-11-21T12:52:18;48241.84;;;-142.28;73.71
4149;BME280;2088;51.032;7.082;2022-11-21T12:55:18;48247.66;;;-142.28;74.77
4149;BME280;2088;51.032;7.082;2022-11-21T12:58:05;48207.00;;;-142.28;74.39
4149;BME280;2088;51.032;7.082;2022-11-21T13:00:41;48234.09;;;-142.28;73.46
4149;BME280;2088;51.032;7.082;2022-11-21T13:03:27;48245.72;;;-142.28;73.54
4149;BME280;2088;51.032;7.082;2022-11-21T13:05:56;48263.13;;;-142.28;74.37
4149;BME280;2088;51.032;7.082;2022-11-21T13:08:25;48249.59;;;-142.28;74.50
4149;BME280;2088;51.032;7.082;2022-11-21T13:10:58;48243.78;;;-142.28;74.82